sensor_id;sensor_type;location;lat;lon;timestamp;P1;durP1;ratioP1;P2;durP2;ratioP2
44578;SDS011;37422;51.402;0.016;2023-02-03T00:02:23;7.80;;;1.48;;
44578;SDS011;37422;51.402;0.016;2023-02-03T00:04:51;5.07;;;1.60;;
44578;SDS011;37422;51.402;0.016;2023-02-03T00:07:18;4.32;;;2.15;;
44578;SDS011;37422;51.402;0.016;2023-02-03T00:09:46;5.95;;;2.47;;
44578;SDS011;37422;51.402;0.016;2023-02-03T00:12:14;5.78;;;1.63;;
44578;SDS011;37422;51.402;0.016;2023-02-03T00:14:42;5.10;;;1.90;;
44578;SDS011;37422;51.402;0.016;2023-02-03T00:17:09;5.65;;;1.77;;
44578;SDS011;37422;51.402;0.016;2023-02-03T00:19:37;6.03;;;1.60;;
44578;SDS011;37422;51.402;0.016;2023-02-03T00:22:04;8.52;;;1.42;;
44578;SDS011;37422;51.402;0.016;2023-02-03T00:24:32;3.85;;;1.20;;
44578;SDS011;37422;51.402;0.016;2023-02-03T00:27:00;4.47;;;1.38;;
44578;SDS011;37422;51.402;0.016;2023-02-03T00:29:27;2.97;;;1.40;;
44578;SDS011;37422;51.402;0.016;2023-02-03T00:31:55;8.57;;;1.90;;
44578;SDS011;37422;51.402;0.016;2023-02-03T00:34:28;8.75;;;1.95;;
44578;SDS011;37422;51.402;0.016;2023-02-03T00:36:56;6.40;;;1.70;;
44578;SDS011;37422;51.402;0.016;2023-02-03T00:39:24;7.60;;;2.45;;
44578;SDS011;37422;51.402;0.016;2023-02-03T00:41:52;8.13;;;1.45;;
44578;SDS011;37422;51.402;0.016;2023-02-03T00:44:20;7.93;;;1.92;;
44578;SDS011;37422;51.402;0.016;2023-02-03T00:46:47;5.38;;;1.88;;
44578;SDS011;37422;51.402;0.016;2023-02-03T00:49:15;6.85;;;1.60;;
44578;SDS011;37422;51.402;0.016;2023-02-03T00:51:43;8.65;;;2.20;;
44578;SDS011;37422;51.402;0.016;2023-02-03T00:54:10;5.82;;;1.65;;
44578;SDS011;37422;51.402;0.016;2023-02-03T00:56:40;5.55;;;1.88;;
44578;SDS011;37422;51.402;0.016;2023-02-03T00:59:09;4.65;;;1.63;;
44578;SDS011;37422;51.402;0.016;2023-02-03T01:01:37;7.63;;;1.63;;
44578;SDS011;37422;51.402;0.016;2023-02-03T01:04:06;7.00;;;1.90;;
44578;SDS011;37422;51.402;0.016;2023-02-03T01:06:34;5.63;;;1.85;;
44578;SDS011;37422;51.402;0.016;2023-02-03T01:09:01;8.68;;;1.65;;
44578;SDS011;37422;51.402;0.016;2023-02-03T01:11:29;5.38;;;1.75;;
44578;SDS011;37422;51.402;0.016;2023-02-03T01:13:58;4.40;;;1.60;;
44578;SDS011;37422;51.402;0.016;2023-02-03T01:16:28;4.78;;;1.50;;
44578;SDS011;37422;51.402;0.016;2023-02-03T01:18:57;9.52;;;1.85;;
44578;SDS011;37422;51.402;0.016;2023-02-03T01:21:27;4.72;;;1.50;;
44578;SDS011;37422;51.402;0.016;2023-02-03T01:23:54;1.67;;;1.23;;
44578;SDS011;37422;51.402;0.016;2023-02-03T01:26:23;5.70;;;1.50;;
44578;SDS011;37422;51.402;0.016;2023-02-03T01:28:55;5.75;;;1.80;;
44578;SDS011;37422;51.402;0.016;2023-02-03T01:31:30;2.08;;;1.15;;
44578;SDS011;37422;51.402;0.016;2023-02-03T01:34:07;9.60;;;1.80;;
44578;SDS011;37422;51.402;0.016;2023-02-03T01:36:39;8.57;;;1.45;;
44578;SDS011;37422;51.402;0.016;2023-02-03T01:39:06;4.20;;;1.60;;
44578;SDS011;37422;51.402;0.016;2023-02-03T01:41:35;5.60;;;1.60;;
44578;SDS011;37422;51.402;0.016;2023-02-03T01:47:13;1.80;;;1.10;;
44578;SDS011;37422;51.402;0.016;2023-02-03T01:49:47;6.10;;;1.48;;
44578;SDS011;37422;51.402;0.016;2023-02-03T01:52:20;4.28;;;1.52;;
44578;SDS011;37422;51.402;0.016;2023-02-03T01:54:49;5.43;;;2.97;;
44578;SDS011;37422;51.402;0.016;2023-02-03T01:57:27;6.95;;;2.65;;
44578;SDS011;37422;51.402;0.016;2023-02-03T01:59:59;3.23;;;1.00;;
44578;SDS011;37422;51.402;0.016;2023-02-03T02:02:39;4.07;;;1.30;;
44578;SDS011;37422;51.402;0.016;2023-02-03T02:05:24;5.60;;;1.48;;
44578;SDS011;37422;51.402;0.016;2023-02-03T02:08:11;6.45;;;1.65;;
44578;SDS011;37422;51.402;0.016;2023-02-03T02:10:39;5.88;;;1.30;;
44578;SDS011;37422;51.402;0.016;2023-02-03T02:13:07;6.18;;;1.50;;
44578;SDS011;37422;51.402;0.016;2023-02-03T02:18:39;5.22;;;1.30;;
44578;SDS011;37422;51.402;0.016;2023-02-03T02:24:34;7.82;;;1.95;;
44578;SDS011;37422;51.402;0.016;2023-02-03T02:35:48;8.25;;;1.60;;
44578;SDS011;37422;51.402;0.016;2023-02-03T02:43:40;4.88;;;1.20;;
44578;SDS011;37422;51.402;0.016;2023-02-03T02:52:03;7.25;;;2.08;;
44578;SDS011;37422;51.402;0.016;2023-02-03T02:54:32;3.97;;;1.13;;
44578;SDS011;37422;51.402;0.016;2023-02-03T02:57:08;2.83;;;1.23;;
44578;SDS011;37422;51.402;0.016;2023-02-03T02:59:37;12.57;;;1.70;;
44578;SDS011;37422;51.402;0.016;2023-02-03T03:02:06;7.53;;;1.27;;
44578;SDS011;37422;51.402;0.016;2023-02-03T03:04:38;4.32;;;1.67;;
44578;SDS011;37422;51.402;0.016;2023-02-03T03:07:08;2.58;;;1.00;;
44578;SDS011;37422;51.402;0.016;2023-02-03T03:09:45;4.07;;;1.65;;
44578;SDS011;37422;51.402;0.016;2023-02-03T03:15:06;3.80;;;1.35;;
44578;SDS011;37422;51.402;0.016;2023-02-03T03:17:42;4.82;;;1.25;;
44578;SDS011;37422;51.402;0.016;2023-02-03T03:20:18;4.13;;;1.08;;
44578;SDS011;37422;51.402;0.016;2023-02-03T03:22:53;5.40;;;1.13;;
44578;SDS011;37422;51.402;0.016;2023-02-03T03:25:33;4.10;;;1.10;;
44578;SDS011;37422;51.402;0.016;2023-02-03T03:28:07;6.82;;;1.05;;
44578;SDS011;37422;51.402;0.016;2023-02-03T03:30:39;5.53;;;1.30;;
44578;SDS011;37422;51.402;0.016;2023-02-03T03:33:08;4.78;;;1.30;;
44578;SDS011;37422;51.402;0.016;2023-02-03T03:35:37;5.60;;;1.38;;
44578;SDS011;37422;51.402;0.016;2023-02-03T03:38:31;5.97;;;1.83;;
44578;SDS011;37422;51.402;0.016;2023-02-03T03:41:06;4.40;;;1.77;;
44578;SDS011;37422;51.402;0.016;2023-02-03T03:43:43;1.40;;;0.90;;
44578;SDS011;37422;51.402;0.016;2023-02-03T03:46:14;4.03;;;1.15;;
44578;SDS011;37422;51.402;0.016;2023-02-03T03:51:27;3.63;;;1.25;;
44578;SDS011;37422;51.402;0.016;2023-02-03T03:53:57;8.55;;;1.23;;
44578;SDS011;37422;51.402;0.016;2023-02-03T03:56:30;3.75;;;1.50;;
44578;SDS011;37422;51.402;0.016;2023-02-03T03:59:05;6.10;;;1.40;;
44578;SDS011;37422;51.402;0.016;2023-02-03T04:01:35;6.80;;;1.45;;
44578;SDS011;37422;51.402;0.016;2023-02-03T04:04:06;6.47;;;1.42;;
44578;SDS011;37422;51.402;0.016;2023-02-03T04:06:38;6.57;;;1.48;;
44578;SDS011;37422;51.402;0.016;2023-02-03T04:09:06;5.72;;;1.45;;
44578;SDS011;37422;51.402;0.016;2023-02-03T04:11:34;9.93;;;3.60;;
44578;SDS011;37422;51.402;0.016;2023-02-03T04:14:20;3.67;;;1.20;;
44578;SDS011;37422;51.402;0.016;2023-02-03T04:16:48;9.02;;;2.60;;
44578;SDS011;37422;51.402;0.016;2023-02-03T04:19:16;8.57;;;1.40;;
44578;SDS011;37422;51.402;0.016;2023-02-03T04:21:43;9.15;;;1.42;;
44578;SDS011;37422;51.402;0.016;2023-02-03T04:24:11;7.03;;;2.03;;
44578;SDS011;37422;51.402;0.016;2023-02-03T04:26:39;6.32;;;1.48;;
44578;SDS011;37422;51.402;0.016;2023-02-03T04:29:06;6.78;;;2.17;;
44578;SDS011;37422;51.402;0.016;2023-02-03T04:31:34;7.03;;;1.40;;
44578;SDS011;37422;51.402;0.016;2023-02-03T04:34:02;4.95;;;1.50;;
44578;SDS011;37422;51.402;0.016;2023-02-03T04:36:29;4.22;;;1.23;;
44578;SDS011;37422;51.402;0.016;2023-02-03T04:38:57;4.88;;;1.48;;
44578;SDS011;37422;51.402;0.016;2023-02-03T04:41:25;7.10;;;1.40;;
44578;SDS011;37422;51.402;0.016;2023-02-03T04:43:52;7.63;;;2.58;;
44578;SDS011;37422;51.402;0.016;2023-02-03T04:46:20;7.47;;;1.90;;
44578;SDS011;37422;51.402;0.016;2023-02-03T04:48:48;6.60;;;1.80;;
44578;SDS011;37422;51.402;0.016;2023-02-03T04:51:15;11.27;;;1.27;;
44578;SDS011;37422;51.402;0.016;2023-02-03T04:53:43;7.15;;;1.58;;
44578;SDS011;37422;51.402;0.016;2023-02-03T04:56:10;8.95;;;1.88;;
44578;SDS011;37422;51.402;0.016;2023-02-03T04:58:39;3.65;;;1.40;;
44578;SDS011;37422;51.402;0.016;2023-02-03T05:01:07;10.35;;;1.60;;
44578;SDS011;37422;51.402;0.016;2023-02-03T05:03:35;4.65;;;1.33;;
44578;SDS011;37422;51.402;0.016;2023-02-03T05:06:03;11.18;;;1.58;;
44578;SDS011;37422;51.402;0.016;2023-02-03T05:08:31;8.82;;;1.38;;
44578;SDS011;37422;51.402;0.016;2023-02-03T05:10:59;10.88;;;1.77;;
44578;SDS011;37422;51.402;0.016;2023-02-03T05:13:28;6.85;;;1.65;;
44578;SDS011;37422;51.402;0.016;2023-02-03T05:15:56;8.27;;;1.52;;
44578;SDS011;37422;51.402;0.016;2023-02-03T05:18:23;5.68;;;1.20;;
44578;SDS011;37422;51.402;0.016;2023-02-03T05:20:51;5.57;;;1.20;;
44578;SDS011;37422;51.402;0.016;2023-02-03T05:23:19;6.43;;;1.60;;
44578;SDS011;37422;51.402;0.016;2023-02-03T05:25:46;6.72;;;2.15;;
44578;SDS011;37422;51.402;0.016;2023-02-03T05:28:14;4.50;;;1.50;;
44578;SDS011;37422;51.402;0.016;2023-02-03T05:30:42;12.68;;;2.28;;
44578;SDS011;37422;51.402;0.016;2023-02-03T05:33:10;11.50;;;1.70;;
44578;SDS011;37422;51.402;0.016;2023-02-03T05:35:37;5.95;;;1.48;;
44578;SDS011;37422;51.402;0.016;2023-02-03T05:38:05;10.75;;;1.90;;
44578;SDS011;37422;51.402;0.016;2023-02-03T05:40:33;5.50;;;1.80;;
44578;SDS011;37422;51.402;0.016;2023-02-03T05:43:19;10.45;;;1.98;;
44578;SDS011;37422;51.402;0.016;2023-02-03T05:45:46;3.72;;;1.65;;
44578;SDS011;37422;51.402;0.016;2023-02-03T05:48:14;4.20;;;1.52;;
44578;SDS011;37422;51.402;0.016;2023-02-03T05:50:42;9.82;;;2.47;;
44578;SDS011;37422;51.402;0.016;2023-02-03T05:53:09;8.30;;;1.80;;
44578;SDS011;37422;51.402;0.016;2023-02-03T05:55:37;7.70;;;2.05;;
44578;SDS011;37422;51.402;0.016;2023-02-03T05:58:05;12.23;;;2.25;;
44578;SDS011;37422;51.402;0.016;2023-02-03T06:00:33;11.57;;;2.53;;
44578;SDS011;37422;51.402;0.016;2023-02-03T06:03:01;5.63;;;1.77;;
44578;SDS011;37422;51.402;0.016;2023-02-03T06:05:30;8.45;;;2.47;;
44578;SDS011;37422;51.402;0.016;2023-02-03T06:08:00;7.43;;;1.70;;
44578;SDS011;37422;51.402;0.016;2023-02-03T06:10:28;9.40;;;2.00;;
44578;SDS011;37422;51.402;0.016;2023-02-03T06:12:56;7.93;;;2.15;;
44578;SDS011;37422;51.402;0.016;2023-02-03T06:15:23;8.30;;;1.65;;
44578;SDS011;37422;51.402;0.016;2023-02-03T06:17:51;12.13;;;2.47;;
44578;SDS011;37422;51.402;0.016;2023-02-03T06:20:19;11.57;;;3.47;;
44578;SDS011;37422;51.402;0.016;2023-02-03T06:22:47;2.60;;;1.70;;
44578;SDS011;37422;51.402;0.016;2023-02-03T06:25:17;9.05;;;1.90;;
44578;SDS011;37422;51.402;0.016;2023-02-03T06:27:45;10.60;;;2.45;;
44578;SDS011;37422;51.402;0.016;2023-02-03T06:30:12;7.57;;;1.50;;
44578;SDS011;37422;51.402;0.016;2023-02-03T06:32:40;6.63;;;1.60;;
44578;SDS011;37422;51.402;0.016;2023-02-03T06:35:08;8.75;;;2.22;;
44578;SDS011;37422;51.402;0.016;2023-02-03T06:37:36;6.18;;;1.42;;
44578;SDS011;37422;51.402;0.016;2023-02-03T06:40:04;7.57;;;1.83;;
44578;SDS011;37422;51.402;0.016;2023-02-03T06:42:32;7.50;;;1.85;;
44578;SDS011;37422;51.402;0.016;2023-02-03T06:45:00;5.75;;;1.42;;
44578;SDS011;37422;51.402;0.016;2023-02-03T06:47:29;7.40;;;1.52;;
44578;SDS011;37422;51.402;0.016;2023-02-03T06:49:56;3.08;;;1.52;;
44578;SDS011;37422;51.402;0.016;2023-02-03T06:52:24;9.50;;;1.52;;
44578;SDS011;37422;51.402;0.016;2023-02-03T06:54:52;7.68;;;1.50;;
44578;SDS011;37422;51.402;0.016;2023-02-03T06:57:19;4.82;;;1.45;;
44578;SDS011;37422;51.402;0.016;2023-02-03T06:59:47;5.78;;;1.60;;
44578;SDS011;37422;51.402;0.016;2023-02-03T07:02:15;5.15;;;1.70;;
44578;SDS011;37422;51.402;0.016;2023-02-03T07:04:45;7.95;;;2.65;;
44578;SDS011;37422;51.402;0.016;2023-02-03T07:07:13;9.80;;;3.60;;
44578;SDS011;37422;51.402;0.016;2023-02-03T07:09:40;9.80;;;1.95;;
44578;SDS011;37422;51.402;0.016;2023-02-03T07:12:08;13.88;;;4.57;;
44578;SDS011;37422;51.402;0.016;2023-02-03T07:17:06;10.00;;;2.10;;
44578;SDS011;37422;51.402;0.016;2023-02-03T07:19:34;6.88;;;2.97;;
44578;SDS011;37422;51.402;0.016;2023-02-03T07:22:01;3.38;;;1.95;;
44578;SDS011;37422;51.402;0.016;2023-02-03T07:24:29;6.80;;;2.22;;
44578;SDS011;37422;51.402;0.016;2023-02-03T07:26:57;9.65;;;2.40;;
44578;SDS011;37422;51.402;0.016;2023-02-03T07:29:24;7.32;;;2.53;;
44578;SDS011;37422;51.402;0.016;2023-02-03T07:31:52;9.18;;;2.38;;
44578;SDS011;37422;51.402;0.016;2023-02-03T07:34:20;11.85;;;2.95;;
44578;SDS011;37422;51.402;0.016;2023-02-03T07:36:47;5.32;;;2.10;;
44578;SDS011;37422;51.402;0.016;2023-02-03T07:39:15;6.60;;;2.72;;
44578;SDS011;37422;51.402;0.016;2023-02-03T07:41:43;5.93;;;2.05;;
44578;SDS011;37422;51.402;0.016;2023-02-03T07:44:10;8.13;;;2.30;;
44578;SDS011;37422;51.402;0.016;2023-02-03T07:46:38;4.85;;;2.35;;
44578;SDS011;37422;51.402;0.016;2023-02-03T07:49:11;5.18;;;1.77;;
44578;SDS011;37422;51.402;0.016;2023-02-03T07:51:39;6.88;;;2.45;;
44578;SDS011;37422;51.402;0.016;2023-02-03T07:54:07;9.65;;;1.85;;
44578;SDS011;37422;51.402;0.016;2023-02-03T07:56:34;6.60;;;2.53;;
44578;SDS011;37422;51.402;0.016;2023-02-03T07:59:02;10.52;;;2.17;;
44578;SDS011;37422;51.402;0.016;2023-02-03T08:01:32;7.53;;;2.22;;
44578;SDS011;37422;51.402;0.016;2023-02-03T08:04:00;12.27;;;2.30;;
44578;SDS011;37422;51.402;0.016;2023-02-03T08:08:59;6.50;;;1.67;;
44578;SDS011;37422;51.402;0.016;2023-02-03T08:11:26;11.10;;;2.05;;
44578;SDS011;37422;51.402;0.016;2023-02-03T08:13:54;5.22;;;1.67;;
44578;SDS011;37422;51.402;0.016;2023-02-03T08:16:21;10.27;;;2.28;;
44578;SDS011;37422;51.402;0.016;2023-02-03T08:18:49;9.02;;;2.15;;
44578;SDS011;37422;51.402;0.016;2023-02-03T08:21:17;7.13;;;1.67;;
44578;SDS011;37422;51.402;0.016;2023-02-03T08:23:44;9.30;;;2.65;;
44578;SDS011;37422;51.402;0.016;2023-02-03T08:26:12;5.80;;;1.63;;
44578;SDS011;37422;51.402;0.016;2023-02-03T08:28:40;11.52;;;3.50;;
44578;SDS011;37422;51.402;0.016;2023-02-03T08:31:08;3.60;;;1.63;;
44578;SDS011;37422;51.402;0.016;2023-02-03T08:33:37;6.63;;;2.13;;
44578;SDS011;37422;51.402;0.016;2023-02-03T08:36:05;7.50;;;2.65;;
44578;SDS011;37422;51.402;0.016;2023-02-03T08:38:33;9.52;;;2.35;;
44578;SDS011;37422;51.402;0.016;2023-02-03T08:41:01;6.20;;;2.10;;
44578;SDS011;37422;51.402;0.016;2023-02-03T08:43:34;7.05;;;2.00;;
44578;SDS011;37422;51.402;0.016;2023-02-03T08:46:06;6.82;;;2.55;;
44578;SDS011;37422;51.402;0.016;2023-02-03T08:48:35;8.63;;;2.15;;
44578;SDS011;37422;51.402;0.016;2023-02-03T08:51:13;4.32;;;2.17;;
44578;SDS011;37422;51.402;0.016;2023-02-03T08:53:42;5.32;;;1.83;;
44578;SDS011;37422;51.402;0.016;2023-02-03T08:56:10;8.77;;;2.33;;
44578;SDS011;37422;51.402;0.016;2023-02-03T08:58:38;7.80;;;2.65;;
44578;SDS011;37422;51.402;0.016;2023-02-03T09:01:08;6.90;;;1.85;;
44578;SDS011;37422;51.402;0.016;2023-02-03T09:03:37;7.95;;;2.53;;
44578;SDS011;37422;51.402;0.016;2023-02-03T09:06:06;7.13;;;1.77;;
44578;SDS011;37422;51.402;0.016;2023-02-03T09:08:35;9.13;;;1.90;;
44578;SDS011;37422;51.402;0.016;2023-02-03T09:11:07;8.15;;;2.17;;
44578;SDS011;37422;51.402;0.016;2023-02-03T09:13:36;9.88;;;2.08;;
44578;SDS011;37422;51.402;0.016;2023-02-03T09:16:05;7.85;;;1.95;;
44578;SDS011;37422;51.402;0.016;2023-02-03T09:18:34;7.43;;;1.67;;
44578;SDS011;37422;51.402;0.016;2023-02-03T09:21:02;3.85;;;2.00;;
44578;SDS011;37422;51.402;0.016;2023-02-03T09:23:34;7.20;;;2.70;;
44578;SDS011;37422;51.402;0.016;2023-02-03T09:26:02;7.72;;;1.58;;
44578;SDS011;37422;51.402;0.016;2023-02-03T09:28:31;7.85;;;2.10;;
44578;SDS011;37422;51.402;0.016;2023-02-03T09:31:03;6.88;;;2.72;;
44578;SDS011;37422;51.402;0.016;2023-02-03T09:33:33;6.00;;;2.00;;
44578;SDS011;37422;51.402;0.016;2023-02-03T09:36:01;8.38;;;1.92;;
44578;SDS011;37422;51.402;0.016;2023-02-03T09:38:29;7.00;;;2.58;;
44578;SDS011;37422;51.402;0.016;2023-02-03T09:40:59;9.32;;;2.70;;
44578;SDS011;37422;51.402;0.016;2023-02-03T09:43:52;2.78;;;1.85;;
44578;SDS011;37422;51.402;0.016;2023-02-03T09:46:29;7.25;;;2.10;;
44578;SDS011;37422;51.402;0.016;2023-02-03T09:51:51;5.40;;;1.90;;
44578;SDS011;37422;51.402;0.016;2023-02-03T09:54:44;7.40;;;2.05;;
44578;SDS011;37422;51.402;0.016;2023-02-03T09:57:43;9.20;;;3.55;;
44578;SDS011;37422;51.402;0.016;2023-02-03T10:00:21;10.48;;;2.25;;
44578;SDS011;37422;51.402;0.016;2023-02-03T10:06:23;7.80;;;2.05;;
44578;SDS011;37422;51.402;0.016;2023-02-03T10:12:18;7.63;;;2.30;;
44578;SDS011;37422;51.402;0.016;2023-02-03T10:18:23;6.63;;;2.25;;
44578;SDS011;37422;51.402;0.016;2023-02-03T10:21:30;7.55;;;2.25;;
44578;SDS011;37422;51.402;0.016;2023-02-03T10:24:05;8.20;;;2.63;;
44578;SDS011;37422;51.402;0.016;2023-02-03T10:26:39;13.05;;;3.05;;
44578;SDS011;37422;51.402;0.016;2023-02-03T10:32:13;9.27;;;2.70;;
44578;SDS011;37422;51.402;0.016;2023-02-03T10:34:44;5.70;;;2.25;;
44578;SDS011;37422;51.402;0.016;2023-02-03T10:37:25;11.07;;;2.65;;
44578;SDS011;37422;51.402;0.016;2023-02-03T10:39:58;5.18;;;2.10;;
44578;SDS011;37422;51.402;0.016;2023-02-03T10:42:32;7.05;;;2.10;;
44578;SDS011;37422;51.402;0.016;2023-02-03T10:47:56;7.50;;;2.75;;
44578;SDS011;37422;51.402;0.016;2023-02-03T10:50:26;11.27;;;2.70;;
44578;SDS011;37422;51.402;0.016;2023-02-03T10:56:13;6.68;;;1.98;;
44578;SDS011;37422;51.402;0.016;2023-02-03T10:59:01;6.80;;;2.13;;
44578;SDS011;37422;51.402;0.016;2023-02-03T11:01:54;7.68;;;1.95;;
44578;SDS011;37422;51.402;0.016;2023-02-03T11:04:27;11.77;;;2.63;;
44578;SDS011;37422;51.402;0.016;2023-02-03T11:07:02;5.55;;;2.13;;
44578;SDS011;37422;51.402;0.016;2023-02-03T11:09:37;8.75;;;2.47;;
44578;SDS011;37422;51.402;0.016;2023-02-03T11:17:35;8.10;;;1.83;;
44578;SDS011;37422;51.402;0.016;2023-02-03T11:20:14;6.07;;;1.85;;
44578;SDS011;37422;51.402;0.016;2023-02-03T11:22:43;5.28;;;2.03;;
44578;SDS011;37422;51.402;0.016;2023-02-03T11:25:31;8.02;;;1.75;;
44578;SDS011;37422;51.402;0.016;2023-02-03T11:28:02;8.50;;;1.83;;
44578;SDS011;37422;51.402;0.016;2023-02-03T11:30:37;7.82;;;1.60;;
44578;SDS011;37422;51.402;0.016;2023-02-03T11:33:19;5.57;;;1.65;;
44578;SDS011;37422;51.402;0.016;2023-02-03T11:35:55;7.15;;;2.03;;
44578;SDS011;37422;51.402;0.016;2023-02-03T11:38:28;8.13;;;2.15;;
44578;SDS011;37422;51.402;0.016;2023-02-03T11:41:30;12.15;;;2.50;;
44578;SDS011;37422;51.402;0.016;2023-02-03T11:44:10;8.38;;;2.40;;
44578;SDS011;37422;51.402;0.016;2023-02-03T11:46:52;10.25;;;2.15;;
44578;SDS011;37422;51.402;0.016;2023-02-03T11:49:38;10.68;;;1.85;;
44578;SDS011;37422;51.402;0.016;2023-02-03T11:52:17;10.85;;;1.95;;
44578;SDS011;37422;51.402;0.016;2023-02-03T12:06:26;9.65;;;2.05;;
44578;SDS011;37422;51.402;0.016;2023-02-03T12:11:53;9.25;;;1.88;;
44578;SDS011;37422;51.402;0.016;2023-02-03T12:14:48;7.50;;;2.13;;
44578;SDS011;37422;51.402;0.016;2023-02-03T12:17:42;9.10;;;3.75;;
44578;SDS011;37422;51.402;0.016;2023-02-03T12:20:37;8.07;;;2.30;;
44578;SDS011;37422;51.402;0.016;2023-02-03T12:26:27;8.30;;;2.42;;
44578;SDS011;37422;51.402;0.016;2023-02-03T12:32:24;8.80;;;1.90;;
44578;SDS011;37422;51.402;0.016;2023-02-03T12:37:49;4.60;;;1.98;;
44578;SDS011;37422;51.402;0.016;2023-02-03T12:42:58;11.73;;;2.72;;
44578;SDS011;37422;51.402;0.016;2023-02-03T12:45:56;8.07;;;2.38;;
44578;SDS011;37422;51.402;0.016;2023-02-03T12:48:38;8.90;;;2.40;;
44578;SDS011;37422;51.402;0.016;2023-02-03T13:06:03;12.45;;;2.20;;
44578;SDS011;37422;51.402;0.016;2023-02-03T13:08:49;9.57;;;2.00;;
44578;SDS011;37422;51.402;0.016;2023-02-03T13:11:33;10.10;;;3.03;;
44578;SDS011;37422;51.402;0.016;2023-02-03T13:17:11;8.95;;;2.08;;
44578;SDS011;37422;51.402;0.016;2023-02-03T13:20:20;8.02;;;1.92;;
44578;SDS011;37422;51.402;0.016;2023-02-03T13:22:50;5.70;;;1.83;;
44578;SDS011;37422;51.402;0.016;2023-02-03T13:25:22;13.27;;;2.63;;
44578;SDS011;37422;51.402;0.016;2023-02-03T13:27:56;6.68;;;1.85;;
44578;SDS011;37422;51.402;0.016;2023-02-03T13:36:35;10.05;;;2.25;;
44578;SDS011;37422;51.402;0.016;2023-02-03T13:42:27;8.77;;;1.90;;
44578;SDS011;37422;51.402;0.016;2023-02-03T13:48:16;9.23;;;2.10;;
44578;SDS011;37422;51.402;0.016;2023-02-03T13:51:05;10.43;;;2.33;;
44578;SDS011;37422;51.402;0.016;2023-02-03T13:53:39;9.15;;;2.20;;
44578;SDS011;37422;51.402;0.016;2023-02-03T14:09:37;7.82;;;2.53;;
44578;SDS011;37422;51.402;0.016;2023-02-03T14:13:25;6.63;;;2.58;;
44578;SDS011;37422;51.402;0.016;2023-02-03T14:16:54;7.60;;;1.80;;
44578;SDS011;37422;51.402;0.016;2023-02-03T14:52:18;9.30;;;2.42;;
44578;SDS011;37422;51.402;0.016;2023-02-03T15:28:57;8.30;;;3.92;;
44578;SDS011;37422;51.402;0.016;2023-02-03T15:32:41;11.27;;;2.35;;
44578;SDS011;37422;51.402;0.016;2023-02-03T15:36:25;7.88;;;2.25;;
44578;SDS011;37422;51.402;0.016;2023-02-03T16:01:18;4.78;;;1.77;;
44578;SDS011;37422;51.402;0.016;2023-02-03T16:04:23;3.72;;;2.10;;
44578;SDS011;37422;51.402;0.016;2023-02-03T16:17:34;10.38;;;3.20;;
44578;SDS011;37422;51.402;0.016;2023-02-03T16:20:48;8.88;;;3.08;;
44578;SDS011;37422;51.402;0.016;2023-02-03T16:23:21;13.60;;;3.65;;
44578;SDS011;37422;51.402;0.016;2023-02-03T16:26:14;10.18;;;3.28;;
44578;SDS011;37422;51.402;0.016;2023-02-03T16:29:34;9.85;;;3.53;;
44578;SDS011;37422;51.402;0.016;2023-02-03T16:31:57;8.68;;;2.92;;
44578;SDS011;37422;51.402;0.016;2023-02-03T16:34:45;10.10;;;3.92;;
44578;SDS011;37422;51.402;0.016;2023-02-03T16:37:42;12.10;;;4.88;;
44578;SDS011;37422;51.402;0.016;2023-02-03T16:40:31;7.03;;;3.25;;
44578;SDS011;37422;51.402;0.016;2023-02-03T16:43:17;8.27;;;3.53;;
44578;SDS011;37422;51.402;0.016;2023-02-03T16:46:08;6.95;;;3.00;;
44578;SDS011;37422;51.402;0.016;2023-02-03T16:48:57;6.85;;;3.28;;
44578;SDS011;37422;51.402;0.016;2023-02-03T16:51:43;12.30;;;3.10;;
44578;SDS011;37422;51.402;0.016;2023-02-03T16:54:12;9.80;;;3.03;;
44578;SDS011;37422;51.402;0.016;2023-02-03T16:56:41;13.70;;;4.57;;
44578;SDS011;37422;51.402;0.016;2023-02-03T16:59:09;9.32;;;3.10;;
44578;SDS011;37422;51.402;0.016;2023-02-03T17:01:37;10.23;;;3.60;;
44578;SDS011;37422;51.402;0.016;2023-02-03T17:04:06;10.63;;;3.28;;
44578;SDS011;37422;51.402;0.016;2023-02-03T17:06:38;13.13;;;2.83;;
44578;SDS011;37422;51.402;0.016;2023-02-03T17:09:06;13.38;;;4.30;;
44578;SDS011;37422;51.402;0.016;2023-02-03T17:11:34;11.02;;;4.05;;
44578;SDS011;37422;51.402;0.016;2023-02-03T17:14:17;8.20;;;3.80;;
44578;SDS011;37422;51.402;0.016;2023-02-03T17:17:12;10.13;;;3.17;;
44578;SDS011;37422;51.402;0.016;2023-02-03T17:19:44;7.85;;;3.75;;
44578;SDS011;37422;51.402;0.016;2023-02-03T17:22:12;6.75;;;3.10;;
44578;SDS011;37422;51.402;0.016;2023-02-03T17:24:54;12.40;;;3.78;;
44578;SDS011;37422;51.402;0.016;2023-02-03T17:27:36;9.70;;;4.20;;
44578;SDS011;37422;51.402;0.016;2023-02-03T17:30:16;10.07;;;3.25;;
44578;SDS011;37422;51.402;0.016;2023-02-03T17:35:13;11.80;;;3.75;;
44578;SDS011;37422;51.402;0.016;2023-02-03T17:37:44;9.23;;;3.95;;
44578;SDS011;37422;51.402;0.016;2023-02-03T17:40:13;11.20;;;3.45;;
44578;SDS011;37422;51.402;0.016;2023-02-03T17:43:00;12.88;;;4.05;;
44578;SDS011;37422;51.402;0.016;2023-02-03T17:45:49;10.32;;;3.72;;
44578;SDS011;37422;51.402;0.016;2023-02-03T17:48:42;12.70;;;4.28;;
44578;SDS011;37422;51.402;0.016;2023-02-03T17:51:28;10.88;;;4.13;;
44578;SDS011;37422;51.402;0.016;2023-02-03T17:54:13;7.60;;;3.97;;
44578;SDS011;37422;51.402;0.016;2023-02-03T17:56:41;15.18;;;4.72;;
44578;SDS011;37422;51.402;0.016;2023-02-03T18:03:27;12.02;;;4.53;;
44578;SDS011;37422;51.402;0.016;2023-02-03T18:06:25;13.88;;;5.97;;
44578;SDS011;37422;51.402;0.016;2023-02-03T18:26:34;13.68;;;4.75;;
44578;SDS011;37422;51.402;0.016;2023-02-03T18:30:23;10.55;;;3.47;;
44578;SDS011;37422;51.402;0.016;2023-02-03T18:33:04;13.02;;;5.53;;
44578;SDS011;37422;51.402;0.016;2023-02-03T18:36:13;9.63;;;3.67;;
44578;SDS011;37422;51.402;0.016;2023-02-03T18:39:04;10.85;;;4.05;;
44578;SDS011;37422;51.402;0.016;2023-02-03T18:42:34;12.77;;;4.75;;
44578;SDS011;37422;51.402;0.016;2023-02-03T18:46:29;12.43;;;4.40;;
44578;SDS011;37422;51.402;0.016;2023-02-03T18:49:47;9.13;;;3.95;;
44578;SDS011;37422;51.402;0.016;2023-02-03T18:53:10;15.93;;;5.63;;
44578;SDS011;37422;51.402;0.016;2023-02-03T18:56:30;12.80;;;3.72;;
44578;SDS011;37422;51.402;0.016;2023-02-03T18:59:57;12.95;;;4.65;;
44578;SDS011;37422;51.402;0.016;2023-02-03T19:03:11;12.10;;;3.20;;
44578;SDS011;37422;51.402;0.016;2023-02-03T19:05:56;9.48;;;3.33;;
44578;SDS011;37422;51.402;0.016;2023-02-03T19:08:55;9.43;;;3.65;;
44578;SDS011;37422;51.402;0.016;2023-02-03T19:11:58;10.77;;;3.58;;
44578;SDS011;37422;51.402;0.016;2023-02-03T19:15:42;10.57;;;3.63;;
44578;SDS011;37422;51.402;0.016;2023-02-03T19:18:10;8.65;;;3.65;;
44578;SDS011;37422;51.402;0.016;2023-02-03T19:20:42;11.80;;;5.57;;
44578;SDS011;37422;51.402;0.016;2023-02-03T19:23:11;9.15;;;3.28;;
44578;SDS011;37422;51.402;0.016;2023-02-03T19:25:39;11.13;;;4.28;;
44578;SDS011;37422;51.402;0.016;2023-02-03T19:28:12;8.07;;;3.50;;
44578;SDS011;37422;51.402;0.016;2023-02-03T19:30:50;8.85;;;3.55;;
44578;SDS011;37422;51.402;0.016;2023-02-03T19:33:26;9.50;;;4.05;;
44578;SDS011;37422;51.402;0.016;2023-02-03T19:35:53;9.80;;;4.40;;
44578;SDS011;37422;51.402;0.016;2023-02-03T19:38:21;11.10;;;3.70;;
44578;SDS011;37422;51.402;0.016;2023-02-03T19:40:50;11.80;;;3.83;;
44578;SDS011;37422;51.402;0.016;2023-02-03T19:43:27;11.18;;;3.42;;
44578;SDS011;37422;51.402;0.016;2023-02-03T19:45:59;11.88;;;5.00;;
44578;SDS011;37422;51.402;0.016;2023-02-03T19:48:28;8.50;;;3.90;;
44578;SDS011;37422;51.402;0.016;2023-02-03T19:50:56;9.07;;;3.85;;
44578;SDS011;37422;51.402;0.016;2023-02-03T19:53:24;9.68;;;3.95;;
44578;SDS011;37422;51.402;0.016;2023-02-03T19:55:56;8.98;;;3.70;;
44578;SDS011;37422;51.402;0.016;2023-02-03T19:58:26;8.05;;;3.45;;